Time;durP1;ratioP1;P1;durP2;ratioP2;P2;SDS_P1;SDS_P2;PMS_P1;PMS_P2;Temp;Humidity;BMP_temperature;BMP_pressure;BME280_temperature;BME280_humidity;BME280_pressure;Samples;Min_cycle;Max_cycle;Signal;HPM_P1;HPM_P2
2023/01/22 00:00:13;;;;;;;9.70;6.75;;;-1.40;99.90;;;;;;5007568;28;20086;-81
2023/01/22 00:02:41;;;;;;;9.38;6.07;;;-1.40;99.90;;;;;;4977031;28;20073;-81
2023/01/22 00:05:08;;;;;;;11.77;7.53;;;-1.40;99.90;;;;;;4990681;28;20057;-83
2023/01/22 00:07:35;;;;;;;10.70;6.60;;;-1.40;99.90;;;;;;4994638;28;20059;-81
2023/01/22 00:10:03;;;;;;;11.13;6.97;;;-1.40;99.90;;;;;;4992052;28;20053;-78
2023/01/22 00:12:30;;;;;;;11.13;7.13;;;-1.40;99.90;;;;;;5003315;28;20052;-81
2023/01/22 00:14:57;;;;;;;11.85;6.28;;;-1.40;99.90;;;;;;5001528;28;20049;-83
2023/01/22 00:17:24;;;;;;;10.15;6.97;;;-1.40;99.90;;;;;;4996840;28;20068;-81
2023/01/22 00:19:50;;;;;;;11.55;6.93;;;-1.50;99.90;;;;;;5000673;28;20100;-81
2023/01/22 00:22:17;;;;;;;9.75;6.38;;;-1.50;99.90;;;;;;4993530;28;20042;-83
2023/01/22 00:24:47;;;;;;;10.70;7.68;;;-1.50;99.90;;;;;;4989897;28;20579;-81
2023/01/22 00:27:13;;;;;;;10.77;6.93;;;-1.50;99.90;;;;;;4989908;28;20661;-78
2023/01/22 00:29:40;;;;;;;9.55;7.35;;;-1.40;99.90;;;;;;5006998;28;20063;-80
2023/01/22 00:32:07;;;;;;;11.40;6.75;;;-1.50;99.90;;;;;;5006912;28;20157;-82
2023/01/22 00:34:34;;;;;;;11.15;6.68;;;-1.50;99.90;;;;;;5008689;28;20049;-81
2023/01/22 00:37:01;;;;;;;11.85;6.75;;;-1.50;99.90;;;;;;5027083;28;20089;-81
2023/01/22 00:39:28;;;;;;;9.85;7.22;;;-1.60;99.90;;;;;;5026199;28;20053;-82
2023/01/22 00:41:55;;;;;;;10.38;6.57;;;-1.60;99.90;;;;;;5026099;28;20136;-82
2023/01/22 00:44:22;;;;;;;11.10;7.45;;;-1.60;99.90;;;;;;5006717;28;20136;-79
2023/01/22 00:46:51;;;;;;;8.73;5.95;;;-1.60;99.90;;;;;;4990330;28;20054;-81
2023/01/22 00:49:18;;;;;;;9.27;6.55;;;-1.60;99.90;;;;;;5006746;28;20674;-79
2023/01/22 00:51:45;;;;;;;10.07;7.30;;;-1.60;99.90;;;;;;5023791;28;20056;-79
2023/01/22 00:54:12;;;;;;;9.50;6.43;;;-1.60;99.90;;;;;;5009190;28;20493;-83
2023/01/22 00:56:39;;;;;;;9.63;7.38;;;-1.70;99.90;;;;;;5026488;28;20054;-79
2023/01/22 00:59:09;;;;;;;12.25;6.72;;;-1.70;99.90;;;;;;5026448;28;20076;-81
2023/01/22 01:01:39;;;;;;;10.18;6.57;;;-1.70;99.90;;;;;;5026558;28;20045;-80
2023/01/22 01:04:07;;;;;;;12.85;7.35;;;-1.70;99.90;;;;;;5025493;28;20049;-82
2023/01/22 01:06:33;;;;;;;10.27;8.43;;;-1.70;99.90;;;;;;5027319;28;20059;-79
2023/01/22 01:09:00;;;;;;;10.57;6.85;;;-1.70;99.90;;;;;;5026216;28;20135;-81
2023/01/22 01:11:28;;;;;;;10.90;7.63;;;-1.70;99.90;;;;;;5026227;28;20639;-79
2023/01/22 01:13:55;;;;;;;10.77;7.15;;;-1.70;99.90;;;;;;5026528;28;20052;-82
2023/01/22 01:16:28;;;;;;;10.98;6.95;;;-1.70;99.90;;;;;;5010527;28;20049;-82
2023/01/22 01:19:05;;;;;;;11.90;6.85;;;-1.80;99.90;;;;;;5026507;28;20057;-80
2023/01/22 01:21:32;;;;;;;10.35;6.40;;;-1.80;99.90;;;;;;5027272;28;20439;-84
2023/01/22 01:23:59;;;;;;;10.18;6.47;;;-1.70;99.90;;;;;;5025778;28;20088;-79
2023/01/22 01:26:26;;;;;;;9.95;6.72;;;-1.70;99.90;;;;;;5025901;28;20045;-79
2023/01/22 01:28:53;;;;;;;9.75;6.47;;;-1.80;99.90;;;;;;5026044;28;20061;-78
2023/01/22 01:31:21;;;;;;;8.40;5.85;;;-1.80;99.90;;;;;;5026240;28;20052;-82
2023/01/22 01:33:49;;;;;;;9.00;6.05;;;-1.80;99.90;;;;;;5026053;28;20067;-78
2023/01/22 01:36:17;;;;;;;9.30;6.40;;;-1.80;99.90;;;;;;5007195;28;20042;-83
2023/01/22 01:39:04;;;;;;;10.10;6.00;;;-1.80;99.90;;;;;;4978843;28;20069;-79
2023/01/22 01:41:31;;;;;;;8.57;6.43;;;-1.80;99.90;;;;;;5005757;28;20046;-79
2023/01/22 01:44:09;;;;;;;7.95;5.57;;;-1.90;99.90;;;;;;4990227;28;20076;-81
2023/01/22 01:46:39;;;;;;;9.35;6.10;;;-1.90;99.90;;;;;;4989181;28;20042;-79
2023/01/22 01:49:09;;;;;;;9.60;5.82;;;-1.90;99.90;;;;;;4973273;28;20064;-83
2023/01/22 01:51:36;;;;;;;10.40;5.95;;;-1.90;99.90;;;;;;4974113;28;20056;-84
2023/01/22 01:54:03;;;;;;;9.70;5.40;;;-1.90;99.90;;;;;;4973044;28;20050;-81
2023/01/22 01:56:34;;;;;;;9.50;6.95;;;-1.90;99.90;;;;;;5008775;28;20052;-84
2023/01/22 01:59:06;;;;;;;9.18;6.57;;;-1.90;99.90;;;;;;5025117;28;20053;-83
2023/01/22 02:01:33;;;;;;;9.82;6.15;;;-1.90;99.90;;;;;;5025249;28;20041;-83
2023/01/22 02:04:00;;;;;;;9.48;6.80;;;-1.90;99.90;;;;;;5009015;28;20626;-81
2023/01/22 02:06:27;;;;;;;9.02;6.15;;;-2.00;99.90;;;;;;5025165;28;20064;-78
2023/01/22 02:08:54;;;;;;;10.68;6.78;;;-1.90;99.90;;;;;;5025884;28;20068;-80
2023/01/22 02:11:21;;;;;;;7.95;5.97;;;-2.00;99.90;;;;;;5005046;28;20140;-79
2023/01/22 02:13:53;;;;;;;9.50;6.60;;;-1.90;99.90;;;;;;5004131;28;20144;-82
2023/01/22 02:16:20;;;;;;;10.93;7.07;;;-1.90;99.90;;;;;;5023505;28;20099;-82
2023/01/22 02:18:48;;;;;;;10.18;6.65;;;-1.90;99.90;;;;;;5025024;28;20056;-79
2023/01/22 02:21:41;;;;;;;10.35;6.72;;;-1.90;99.90;;;;;;5008957;28;20049;-79
2023/01/22 02:24:10;;;;;;;11.38;6.97;;;-2.00;99.90;;;;;;5009876;28;20049;-83
2023/01/22 02:26:37;;;;;;;9.90;6.60;;;-2.00;99.90;;;;;;5024224;28;20053;-80
2023/01/22 02:29:07;;;;;;;9.60;7.03;;;-2.00;99.90;;;;;;5023880;28;20053;-80
2023/01/22 02:31:38;;;;;;;9.50;6.78;;;-2.00;99.90;;;;;;5021969;23;20046;-86
2023/01/22 02:34:05;;;;;;;10.23;6.65;;;-2.00;99.90;;;;;;4991432;28;20051;-87
2023/01/22 02:36:33;;;;;;;14.55;7.60;;;-2.10;99.90;;;;;;4972972;28;20138;-87
2023/01/22 02:39:00;;;;;;;9.95;6.78;;;-2.10;99.90;;;;;;4972314;28;20051;-87
2023/01/22 02:41:27;;;;;;;12.40;7.35;;;-2.10;99.90;;;;;;5004504;28;20082;-86
2023/01/22 02:43:54;;;;;;;11.13;7.88;;;-2.10;99.90;;;;;;4973300;28;20397;-87
2023/01/22 02:46:21;;;;;;;10.30;7.28;;;-2.10;99.90;;;;;;4971839;28;20058;-87
2023/01/22 02:48:48;;;;;;;15.90;7.53;;;-2.10;99.90;;;;;;4973306;28;20514;-87
2023/01/22 02:51:14;;;;;;;10.40;6.43;;;-2.10;99.90;;;;;;4972832;28;20240;-86
2023/01/22 02:53:41;;;;;;;11.90;7.28;;;-2.10;99.90;;;;;;4971815;28;20130;-87
2023/01/22 02:56:08;;;;;;;10.48;6.38;;;-2.10;99.90;;;;;;4972118;28;20053;-86
2023/01/22 02:58:35;;;;;;;9.80;6.13;;;-2.10;99.90;;;;;;4988600;28;20714;-85
2023/01/22 03:01:28;;;;;;;10.15;6.38;;;-2.20;99.90;;;;;;4971768;28;20047;-87
2023/01/22 03:04:00;;;;;;;7.75;5.03;;;-2.20;99.90;;;;;;4970798;28;20475;-87
2023/01/22 03:06:28;;;;;;;10.70;6.80;;;-2.20;99.90;;;;;;4955420;28;20085;-87
2023/01/22 03:08:56;;;;;;;7.72;5.47;;;-2.20;99.90;;;;;;5004224;28;20134;-87
2023/01/22 03:11:24;;;;;;;8.45;5.82;;;-2.30;99.90;;;;;;5003938;28;20878;-85
2023/01/22 03:22:08;;;;;;;8.40;5.75;;;-2.30;99.90;;;;;;4996776;28;20054;-84
2023/01/22 03:24:35;;;;;;;9.57;6.28;;;-2.20;99.90;;;;;;4970563;28;20490;-82
2023/01/22 03:27:02;;;;;;;9.18;6.03;;;-2.20;99.90;;;;;;4970945;28;20053;-84
2023/01/22 03:29:29;;;;;;;10.60;5.95;;;-2.30;99.90;;;;;;4986045;28;20053;-84
2023/01/22 03:31:56;;;;;;;12.18;6.40;;;-2.30;99.90;;;;;;4986079;28;20116;-84
2023/01/22 03:34:24;;;;;;;8.00;5.47;;;-2.30;99.90;;;;;;4969950;28;20084;-83
2023/01/22 03:36:51;;;;;;;9.50;6.53;;;-2.30;99.90;;;;;;4971040;28;20047;-84
2023/01/22 03:39:17;;;;;;;11.10;7.28;;;-2.30;99.90;;;;;;4971246;28;20069;-84
2023/01/22 03:41:44;;;;;;;11.63;6.72;;;-2.30;99.90;;;;;;4970701;28;20055;-84
2023/01/22 03:44:13;;;;;;;10.43;7.30;;;-2.30;99.90;;;;;;5002049;28;20046;-84
2023/01/22 03:46:39;;;;;;;11.05;6.25;;;-2.30;99.90;;;;;;5001541;28;20050;-84
2023/01/22 03:49:07;;;;;;;10.30;6.93;;;-2.30;99.90;;;;;;5002052;28;20093;-84
2023/01/22 03:51:34;;;;;;;9.20;6.20;;;-2.30;99.90;;;;;;4970421;28;20105;-84
2023/01/22 03:54:01;;;;;;;9.43;6.55;;;-2.30;99.90;;;;;;4985809;28;20086;-84
2023/01/22 03:56:28;;;;;;;9.32;5.45;;;-2.30;99.90;;;;;;4985281;28;20051;-85
2023/01/22 03:58:55;;;;;;;11.07;5.88;;;-2.30;99.90;;;;;;5002261;28;20050;-83
2023/01/22 04:01:23;;;;;;;11.02;7.22;;;-2.40;99.90;;;;;;5001729;28;20058;-85
2023/01/22 04:03:50;;;;;;;12.80;6.20;;;-2.40;99.90;;;;;;5001980;28;20078;-84
2023/01/22 04:06:17;;;;;;;10.18;6.35;;;-2.40;99.90;;;;;;4985135;28;20055;-84
2023/01/22 04:08:45;;;;;;;8.30;5.53;;;-2.40;99.90;;;;;;4985101;28;20125;-83
2023/01/22 04:11:12;;;;;;;9.00;5.85;;;-2.50;99.90;;;;;;4969814;28;20401;-83
2023/01/22 04:13:39;;;;;;;10.68;6.95;;;-2.50;99.90;;;;;;5001847;28;20054;-84
2023/01/22 04:16:07;;;;;;;12.98;6.72;;;-2.50;99.90;;;;;;4985128;28;20077;-84
2023/01/22 04:18:33;;;;;;;11.75;6.22;;;-2.50;99.90;;;;;;4985164;28;20137;-84
2023/01/22 04:21:00;;;;;;;11.35;6.22;;;-2.50;99.90;;;;;;4969879;28;20505;-84
2023/01/22 04:23:27;;;;;;;9.60;5.95;;;-2.50;99.90;;;;;;5001638;28;20147;-84
2023/01/22 04:25:54;;;;;;;10.13;7.18;;;-2.50;99.90;;;;;;5001047;28;20055;-84
2023/01/22 04:28:20;;;;;;;8.70;5.90;;;-2.50;99.90;;;;;;4985060;28;20315;-84
2023/01/22 04:30:50;;;;;;;11.35;6.05;;;-2.50;99.90;;;;;;4969200;28;20145;-84
2023/01/22 04:33:17;;;;;;;10.73;6.45;;;-2.50;99.90;;;;;;4986781;28;20045;-84
2023/01/22 04:35:43;;;;;;;10.48;6.10;;;-2.50;99.90;;;;;;4984207;28;20506;-84
2023/01/22 04:38:13;;;;;;;11.85;6.72;;;-2.50;99.90;;;;;;4984766;28;20509;-84
2023/01/22 04:40:40;;;;;;;13.48;6.57;;;-2.60;99.90;;;;;;5012653;28;20105;-84
2023/01/22 04:43:07;;;;;;;8.98;5.57;;;-2.60;99.90;;;;;;5001684;28;20493;-84
2023/01/22 04:45:34;;;;;;;11.82;6.53;;;-2.60;99.90;;;;;;5000396;28;20050;-84
2023/01/22 04:48:00;;;;;;;10.35;5.63;;;-2.60;99.90;;;;;;4969500;28;20397;-84
2023/01/22 04:50:29;;;;;;;11.13;5.95;;;-2.60;99.90;;;;;;4969580;28;20426;-84
2023/01/22 04:52:56;;;;;;;9.38;5.88;;;-2.60;99.90;;;;;;4984407;28;20138;-84
2023/01/22 04:55:23;;;;;;;11.13;5.45;;;-2.60;99.90;;;;;;5000532;28;20047;-84
2023/01/22 04:57:52;;;;;;;9.00;5.88;;;-2.60;99.90;;;;;;4984138;28;20054;-83
2023/01/22 05:00:19;;;;;;;10.13;6.53;;;-2.60;99.90;;;;;;4968275;28;20055;-84
2023/01/22 05:02:46;;;;;;;9.23;5.72;;;-2.60;99.90;;;;;;4969144;28;20142;-83
2023/01/22 05:05:13;;;;;;;9.55;4.95;;;-2.70;99.90;;;;;;4999384;28;20137;-83
2023/01/22 05:07:40;;;;;;;8.63;4.97;;;-2.70;99.90;;;;;;4968679;28;20157;-83
2023/01/22 05:10:07;;;;;;;9.38;5.30;;;-2.70;99.90;;;;;;4967159;28;20051;-83
2023/01/22 05:12:34;;;;;;;7.53;5.60;;;-2.70;99.90;;;;;;5000573;28;20070;-83
2023/01/22 05:15:00;;;;;;;8.73;5.35;;;-2.70;99.90;;;;;;5000231;28;20051;-84
2023/01/22 05:17:29;;;;;;;9.90;7.25;;;-2.60;99.90;;;;;;4969274;28;20051;-82
2023/01/22 05:19:56;;;;;;;9.05;5.20;;;-2.60;99.90;;;;;;5001756;28;20082;-83
2023/01/22 05:22:23;;;;;;;12.05;5.55;;;-2.60;99.90;;;;;;4958406;28;20048;-83
2023/01/22 05:24:49;;;;;;;8.50;5.22;;;-2.60;99.90;;;;;;4967054;28;20062;-85
2023/01/22 05:27:16;;;;;;;9.18;5.60;;;-2.60;99.90;;;;;;4987779;28;20058;-83
2023/01/22 05:29:43;;;;;;;7.85;5.40;;;-2.70;99.90;;;;;;4972020;28;20050;-83
2023/01/22 05:32:09;;;;;;;7.95;4.68;;;-2.70;99.90;;;;;;5003626;28;20529;-84
2023/01/22 05:34:36;;;;;;;8.23;5.22;;;-2.70;99.90;;;;;;4972021;28;20110;-84
2023/01/22 05:37:03;;;;;;;7.95;4.85;;;-2.70;99.90;;;;;;4972801;28;20051;-84
2023/01/22 05:39:30;;;;;;;7.82;5.20;;;-2.70;99.90;;;;;;4972201;28;20078;-83
2023/01/22 05:41:57;;;;;;;6.50;4.82;;;-2.70;99.90;;;;;;4972205;28;20053;-84
2023/01/22 05:44:25;;;;;;;9.85;6.00;;;-2.70;99.90;;;;;;5004263;28;20051;-82
2023/01/22 05:46:51;;;;;;;9.70;6.18;;;-2.70;99.90;;;;;;4955708;28;20059;-83
2023/01/22 05:49:18;;;;;;;8.35;5.20;;;-2.70;99.90;;;;;;4972064;28;20663;-83
2023/01/22 05:51:45;;;;;;;7.65;4.68;;;-2.70;99.90;;;;;;4970867;28;20142;-82
2023/01/22 05:54:11;;;;;;;8.48;4.20;;;-2.70;99.90;;;;;;4972262;28;20078;-84
2023/01/22 05:56:38;;;;;;;9.02;4.88;;;-2.70;99.90;;;;;;4970882;28;20054;-82
2023/01/22 05:59:05;;;;;;;8.88;5.85;;;-2.70;99.90;;;;;;4987436;28;20127;-83
2023/01/22 06:01:32;;;;;;;8.35;5.57;;;-2.80;99.90;;;;;;5003676;28;20058;-82
2023/01/22 06:03:58;;;;;;;8.32;5.18;;;-2.80;99.90;;;;;;4969715;28;20047;-84
2023/01/22 06:06:25;;;;;;;7.03;4.63;;;-2.80;99.90;;;;;;4968963;28;20500;-82
2023/01/22 06:08:52;;;;;;;8.38;5.10;;;-2.90;99.90;;;;;;4936640;28;20137;-84
2023/01/22 06:11:19;;;;;;;8.30;5.03;;;-2.90;99.90;;;;;;4967338;28;20090;-83
2023/01/22 06:13:46;;;;;;;8.32;5.82;;;-2.90;99.90;;;;;;4968643;28;20050;-82
2023/01/22 06:16:12;;;;;;;8.73;4.68;;;-2.90;99.90;;;;;;4966957;28;20111;-83
2023/01/22 06:18:39;;;;;;;7.63;5.03;;;-2.90;99.90;;;;;;4966981;28;20062;-82
2023/01/22 06:21:06;;;;;;;8.32;5.43;;;-2.90;99.90;;;;;;4966409;28;20049;-83
2023/01/22 06:23:33;;;;;;;8.65;4.68;;;-2.90;99.90;;;;;;4966935;28;20138;-83
2023/01/22 06:26:00;;;;;;;8.77;5.40;;;-3.00;99.90;;;;;;4966480;28;20154;-84
2023/01/22 06:28:27;;;;;;;7.28;5.20;;;-3.00;99.90;;;;;;4935464;28;20129;-83
2023/01/22 06:30:56;;;;;;;8.93;5.35;;;-2.90;99.90;;;;;;4966203;28;20051;-85
2023/01/22 06:33:23;;;;;;;9.57;6.00;;;-2.90;99.90;;;;;;4990403;28;20082;-83
2023/01/22 06:35:54;;;;;;;7.65;4.70;;;-3.00;99.90;;;;;;4982523;28;20057;-82
2023/01/22 06:38:22;;;;;;;8.40;5.10;;;-3.00;99.90;;;;;;4951399;28;20054;-83
2023/01/22 06:40:52;;;;;;;8.20;4.32;;;-3.00;99.90;;;;;;4951678;28;20065;-82
2023/01/22 06:43:19;;;;;;;6.93;4.97;;;-3.00;99.90;;;;;;4934856;28;20078;-83
2023/01/22 06:45:46;;;;;;;6.63;4.60;;;-3.00;99.90;;;;;;4950406;28;20059;-84
2023/01/22 06:48:13;;;;;;;7.13;4.03;;;-3.00;99.90;;;;;;4966348;28;20053;-82
2023/01/22 06:50:39;;;;;;;9.70;4.32;;;-3.00;99.90;;;;;;4951117;28;20138;-83
2023/01/22 06:53:06;;;;;;;6.78;4.50;;;-3.00;99.90;;;;;;4967590;28;20106;-83
2023/01/22 06:55:33;;;;;;;10.40;5.28;;;-3.00;99.90;;;;;;4951145;28;20146;-83
2023/01/22 06:58:01;;;;;;;5.85;3.97;;;-3.00;99.90;;;;;;4967173;28;20585;-84
2023/01/22 07:00:28;;;;;;;6.80;4.40;;;-3.00;99.90;;;;;;4967829;28;20417;-83
2023/01/22 07:02:55;;;;;;;5.97;3.55;;;-3.00;99.90;;;;;;4950947;28;20054;-83
2023/01/22 07:05:22;;;;;;;7.78;4.82;;;-3.00;99.90;;;;;;4968911;28;20057;-83
2023/01/22 07:07:53;;;;;;;5.40;3.75;;;-3.00;99.90;;;;;;4982881;28;20414;-83
2023/01/22 07:10:20;;;;;;;7.38;4.00;;;-3.10;99.90;;;;;;4998695;28;20490;-84
2023/01/22 07:12:48;;;;;;;6.50;4.00;;;-3.00;99.90;;;;;;4982385;28;20250;-84
2023/01/22 07:15:15;;;;;;;7.05;4.45;;;-3.00;99.90;;;;;;4968064;28;20054;-83
2023/01/22 07:17:42;;;;;;;7.50;4.53;;;-3.00;99.90;;;;;;4982708;28;20206;-83
2023/01/22 07:20:09;;;;;;;6.70;4.55;;;-3.00;99.90;;;;;;4998155;28;20050;-84
2023/01/22 07:22:38;;;;;;;7.00;4.35;;;-3.00;99.90;;;;;;4998283;28;20483;-82
2023/01/22 07:25:06;;;;;;;5.43;4.10;;;-3.00;99.90;;;;;;4981687;28;20471;-83
2023/01/22 07:27:33;;;;;;;6.85;3.97;;;-3.00;99.90;;;;;;4965803;28;20051;-84
2023/01/22 07:30:00;;;;;;;6.45;4.40;;;-3.00;99.90;;;;;;4982532;28;20078;-84
2023/01/22 07:32:27;;;;;;;7.78;4.35;;;-3.00;99.90;;;;;;4987456;28;20054;-83
2023/01/22 07:34:54;;;;;;;6.93;4.53;;;-3.00;99.90;;;;;;4966644;28;20128;-83
2023/01/22 07:37:21;;;;;;;6.05;4.03;;;-3.10;99.90;;;;;;4983272;28;20058;-84
2023/01/22 07:39:47;;;;;;;7.13;5.10;;;-3.10;99.90;;;;;;4999689;28;20050;-84
2023/01/22 07:42:14;;;;;;;6.00;4.13;;;-3.10;99.90;;;;;;4982492;28;20082;-84
2023/01/22 07:44:41;;;;;;;7.20;4.57;;;-3.10;99.90;;;;;;4998859;28;20078;-83
2023/01/22 07:47:08;;;;;;;8.32;4.80;;;-3.00;99.90;;;;;;4999609;28;20101;-85
2023/01/22 07:49:34;;;;;;;6.75;4.28;;;-3.00;99.90;;;;;;4982842;28;20047;-83
2023/01/22 07:52:01;;;;;;;8.02;4.32;;;-3.10;99.90;;;;;;4981346;28;20146;-83
2023/01/22 07:54:28;;;;;;;8.15;5.18;;;-3.10;99.90;;;;;;4954708;28;20550;-84
2023/01/22 07:56:55;;;;;;;7.07;4.45;;;-3.10;99.90;;;;;;4964019;28;20056;-85
2023/01/22 07:59:22;;;;;;;6.82;4.38;;;-3.10;99.90;;;;;;4974643;28;20106;-85
2023/01/22 08:01:49;;;;;;;7.45;5.07;;;-3.10;99.90;;;;;;5003393;28;20532;-85
2023/01/22 08:04:15;;;;;;;6.47;4.53;;;-3.10;99.90;;;;;;4986281;28;20050;-84
2023/01/22 08:06:43;;;;;;;6.40;4.13;;;-3.10;99.90;;;;;;4962610;28;20057;-85
2023/01/22 08:09:10;;;;;;;7.22;4.85;;;-3.10;99.90;;;;;;4998522;28;20133;-85
2023/01/22 08:11:37;;;;;;;6.60;4.13;;;-3.10;99.90;;;;;;4982146;28;20055;-84
2023/01/22 08:14:03;;;;;;;7.25;4.75;;;-3.00;99.90;;;;;;4954181;28;20051;-84
2023/01/22 08:16:30;;;;;;;7.18;3.97;;;-3.10;99.90;;;;;;4982524;28;20086;-84
2023/01/22 08:18:57;;;;;;;7.95;4.43;;;-3.10;99.90;;;;;;4983448;28;20093;-82
2023/01/22 08:21:24;;;;;;;7.78;4.50;;;-3.00;99.90;;;;;;4983097;28;20130;-85
2023/01/22 08:23:51;;;;;;;7.15;4.38;;;-3.00;99.90;;;;;;4984933;28;20047;-84
2023/01/22 08:26:17;;;;;;;6.60;4.15;;;-3.10;99.90;;;;;;4999155;28;20047;-85
2023/01/22 08:28:44;;;;;;;7.03;4.55;;;-3.00;99.90;;;;;;4999951;28;20047;-85
2023/01/22 08:31:11;;;;;;;7.03;5.03;;;-3.00;99.90;;;;;;4983482;28;20063;-84
2023/01/22 08:33:52;;;;;;;5.45;4.22;;;-3.00;99.90;;;;;;4995762;28;20058;-85
2023/01/22 08:36:19;;;;;;;5.47;3.95;;;-3.00;99.90;;;;;;4967989;28;20299;-84
2023/01/22 08:38:46;;;;;;;5.05;3.20;;;-3.00;99.90;;;;;;4950483;28;20062;-85
2023/01/22 08:41:12;;;;;;;6.45;4.28;;;-3.00;99.90;;;;;;4997635;28;20054;-85
2023/01/22 08:43:39;;;;;;;6.20;3.53;;;-3.00;99.90;;;;;;4965301;28;20061;-84
2023/01/22 08:46:06;;;;;;;5.60;3.92;;;-3.00;99.90;;;;;;4979511;28;20125;-85
2023/01/22 08:48:33;;;;;;;7.63;4.72;;;-2.90;99.90;;;;;;4968415;28;20047;-84
2023/01/22 08:51:00;;;;;;;7.07;4.57;;;-2.90;99.90;;;;;;4981894;28;20285;-85
2023/01/22 08:53:27;;;;;;;6.88;4.00;;;-2.90;99.90;;;;;;4981281;28;20042;-85
2023/01/22 08:55:54;;;;;;;5.65;3.63;;;-2.90;99.90;;;;;;4982335;28;20162;-84
2023/01/22 08:58:24;;;;;;;4.75;3.40;;;-2.90;99.90;;;;;;5000450;28;20047;-83
2023/01/22 09:00:51;;;;;;;5.28;3.47;;;-2.90;99.90;;;;;;4968719;28;20567;-86
2023/01/22 09:03:17;;;;;;;5.55;3.55;;;-2.80;99.90;;;;;;5001529;28;20047;-85
2023/01/22 09:05:44;;;;;;;6.20;4.10;;;-2.70;99.90;;;;;;4970567;28;20150;-85
2023/01/22 09:08:11;;;;;;;6.32;3.42;;;-2.60;99.90;;;;;;4986821;28;20061;-87
2023/01/22 09:10:38;;;;;;;5.78;3.72;;;-2.60;99.90;;;;;;4987038;28;20062;-86
2023/01/22 09:13:05;;;;;;;6.30;4.65;;;-2.60;99.90;;;;;;5002523;28;20098;-84
2023/01/22 09:15:31;;;;;;;8.98;4.03;;;-2.60;99.90;;;;;;4953765;28;20062;-86
2023/01/22 09:17:59;;;;;;;7.35;3.85;;;-2.50;99.90;;;;;;4969412;28;20566;-85
2023/01/22 09:20:25;;;;;;;4.97;3.55;;;-2.50;99.90;;;;;;4985939;28;20082;-86
2023/01/22 09:22:52;;;;;;;4.60;3.30;;;-2.40;99.90;;;;;;4999553;28;20061;-86
2023/01/22 09:25:19;;;;;;;4.95;3.50;;;-2.40;99.90;;;;;;4981132;28;20652;-86
2023/01/22 09:27:46;;;;;;;4.18;2.97;;;-2.40;99.90;;;;;;4976256;28;20066;-87
2023/01/22 09:30:13;;;;;;;4.95;3.40;;;-2.30;99.90;;;;;;4952318;28;20138;-89
2023/01/22 09:32:40;;;;;;;4.82;2.92;;;-2.20;99.90;;;;;;4970939;28;20063;-89
2023/01/22 09:35:07;;;;;;;4.55;3.03;;;-2.20;99.90;;;;;;4980572;28;20162;-88
2023/01/22 09:37:34;;;;;;;4.78;2.95;;;-2.10;99.90;;;;;;4983572;28;20051;-89
2023/01/22 09:40:01;;;;;;;4.40;2.83;;;-2.00;99.90;;;;;;5001786;28;20054;-88
2023/01/22 09:42:32;;;;;;;5.10;3.17;;;-1.90;99.90;;;;;;4986290;28;20059;-88
2023/01/22 09:45:10;;;;;;;4.07;2.78;;;-1.80;99.90;;;;;;4934127;29;20117;-88
2023/01/22 09:47:59;;;;;;;5.80;3.20;;;-1.70;99.90;;;;;;4983131;28;20087;-86
2023/01/22 09:50:29;;;;;;;3.53;2.28;;;-1.70;99.90;;;;;;4959652;28;20054;-87
2023/01/22 09:52:58;;;;;;;3.80;2.33;;;-1.70;99.90;;;;;;4982887;28;20047;-86
2023/01/22 09:55:29;;;;;;;5.72;3.00;;;-1.60;99.90;;;;;;4968530;28;20190;-88
2023/01/22 09:57:56;;;;;;;3.50;2.45;;;-1.60;99.90;;;;;;4996923;28;20051;-88
2023/01/22 10:00:36;;;;;;;4.05;2.35;;;-1.50;99.90;;;;;;4996466;28;20633;-87
2023/01/22 10:03:06;;;;;;;3.25;2.30;;;-1.50;99.90;;;;;;4964032;28;20141;-85
2023/01/22 10:05:36;;;;;;;3.63;2.67;;;-1.40;99.90;;;;;;4980335;28;20102;-88
2023/01/22 10:08:08;;;;;;;3.88;2.75;;;-1.40;99.90;;;;;;4957614;28;20130;-87
2023/01/22 10:10:35;;;;;;;4.05;3.38;;;-1.40;99.90;;;;;;4990408;28;20165;-88
2023/01/22 10:13:22;;;;;;;3.90;2.38;;;-1.30;99.90;;;;;;4975597;28;20051;-88
2023/01/22 10:15:50;;;;;;;4.88;2.65;;;-1.30;99.90;;;;;;4999333;28;20492;-88
2023/01/22 10:18:32;;;;;;;3.67;2.58;;;-1.20;99.90;;;;;;4984297;28;20146;-88
2023/01/22 10:21:20;;;;;;;3.50;2.28;;;-1.20;99.90;;;;;;4984998;28;20557;-89
2023/01/22 10:23:49;;;;;;;5.22;2.53;;;-1.10;99.90;;;;;;4968411;28;20050;-88
2023/01/22 10:26:23;;;;;;;6.18;2.80;;;-0.90;99.90;;;;;;4951545;28;20062;-88
2023/01/22 10:28:55;;;;;;;4.75;3.75;;;-0.90;99.90;;;;;;5000010;28;20469;-88
2023/01/22 10:31:32;;;;;;;3.53;2.55;;;-0.80;99.90;;;;;;5001592;28;20138;-88
2023/01/22 10:34:00;;;;;;;4.45;3.20;;;-0.80;99.90;;;;;;5001969;28;20838;-88
2023/01/22 10:36:27;;;;;;;4.15;2.70;;;-0.70;99.90;;;;;;5001232;28;20055;-87
2023/01/22 10:39:05;;;;;;;5.10;3.15;;;-0.60;99.90;;;;;;4967868;28;20130;-89
2023/01/22 10:41:32;;;;;;;4.75;3.65;;;-0.50;99.90;;;;;;4963289;28;20053;-88
2023/01/22 10:44:17;;;;;;;5.15;3.40;;;-0.40;99.90;;;;;;4966788;28;20050;-88
2023/01/22 10:46:45;;;;;;;4.45;3.35;;;-0.30;99.90;;;;;;4967020;28;20640;-88
2023/01/22 10:49:22;;;;;;;4.88;3.70;;;-0.20;99.90;;;;;;5000856;28;20053;-88
2023/01/22 10:52:04;;;;;;;6.00;3.70;;;-0.10;99.90;;;;;;4965594;28;20561;-87
2023/01/22 10:54:38;;;;;;;5.40;3.60;;;0.00;99.90;;;;;;4951057;28;20062;-86
2023/01/22 10:57:21;;;;;;;5.30;4.05;;;0.10;99.90;;;;;;5000132;28;20081;-88
2023/01/22 10:59:54;;;;;;;6.78;4.85;;;0.20;99.90;;;;;;4983700;28;20057;-86
2023/01/22 11:02:22;;;;;;;7.65;4.85;;;0.30;99.90;;;;;;4968217;28;20129;-87
2023/01/22 11:04:50;;;;;;;7.43;4.63;;;0.40;99.90;;;;;;5000348;28;20563;-85
2023/01/22 11:07:21;;;;;;;7.40;4.80;;;0.50;99.90;;;;;;4968096;28;20133;-87
2023/01/22 11:10:03;;;;;;;7.03;4.78;;;0.60;99.90;;;;;;4952372;28;20047;-87
2023/01/22 11:12:35;;;;;;;6.43;4.65;;;0.70;99.90;;;;;;4968897;28;20214;-87
2023/01/22 11:15:27;;;;;;;6.57;4.23;;;0.90;99.90;;;;;;4993191;28;20050;-87
2023/01/22 11:17:56;;;;;;;6.65;4.30;;;1.00;99.90;;;;;;4994477;28;20288;-87
2023/01/22 11:20:48;;;;;;;8.65;5.90;;;1.10;99.90;;;;;;4983133;28;20138;-87
2023/01/22 11:23:28;;;;;;;8.98;6.35;;;1.30;99.90;;;;;;4999684;28;20505;-87
2023/01/22 11:26:17;;;;;;;8.43;6.55;;;1.40;99.90;;;;;;4964145;28;20075;-87
2023/01/22 11:28:56;;;;;;;9.52;6.75;;;1.50;99.90;;;;;;4963688;28;20051;-87
2023/01/22 11:31:27;;;;;;;10.93;7.30;;;1.70;99.90;;;;;;4965437;28;20062;-86
2023/01/22 11:34:22;;;;;;;8.48;6.85;;;1.80;99.90;;;;;;4962851;28;20042;-88
2023/01/22 11:37:11;;;;;;;9.63;5.93;;;1.90;99.90;;;;;;4980817;28;20449;-88
2023/01/22 11:40:17;;;;;;;9.77;6.53;;;2.00;99.90;;;;;;4980423;28;20070;-88
2023/01/22 11:42:59;;;;;;;8.25;5.72;;;2.20;99.90;;;;;;4967327;28;20474;-86
2023/01/22 11:45:35;;;;;;;10.52;5.97;;;2.30;99.90;;;;;;4966068;28;20839;-86
2023/01/22 11:48:29;;;;;;;9.95;7.15;;;2.40;99.90;;;;;;4997025;28;20058;-86
2023/01/22 11:51:19;;;;;;;7.35;6.32;;;2.50;99.90;;;;;;4966544;28;20047;-84
2023/01/22 11:54:01;;;;;;;7.70;5.50;;;2.70;99.90;;;;;;4964015;28;20051;-84
2023/01/22 11:56:52;;;;;;;9.75;6.63;;;2.80;99.90;;;;;;4963169;28;20082;-83
2023/01/22 11:59:32;;;;;;;10.48;7.43;;;2.90;99.90;;;;;;4962717;28;20097;-84
2023/01/22 12:02:37;;;;;;;8.02;6.50;;;3.10;99.90;;;;;;4991251;28;20042;-84
2023/01/22 12:05:12;;;;;;;8.52;6.07;;;3.30;99.90;;;;;;4987719;28;20133;-84
2023/01/22 12:08:01;;;;;;;10.32;6.85;;;3.40;99.90;;;;;;4962754;28;20141;-84
2023/01/22 12:10:34;;;;;;;9.88;6.82;;;3.60;99.90;;;;;;4951670;28;20161;-84
2023/01/22 12:13:23;;;;;;;7.57;6.00;;;3.70;99.90;;;;;;4978681;28;20046;-83
2023/01/22 12:16:16;;;;;;;8.25;5.90;;;4.00;99.90;;;;;;4963934;28;20133;-84
2023/01/22 12:19:06;;;;;;;6.60;4.68;;;4.10;99.90;;;;;;4988539;28;20047;-85
2023/01/22 12:21:51;;;;;;;5.82;4.70;;;4.40;99.90;;;;;;4959856;28;20836;-86
2023/01/22 12:24:24;;;;;;;8.82;6.47;;;4.60;99.90;;;;;;4959911;28;20149;-85
2023/01/22 12:27:00;;;;;;;10.73;8.40;;;4.80;99.90;;;;;;4992677;28;20061;-84
2023/01/22 12:29:36;;;;;;;9.85;7.63;;;5.00;99.90;;;;;;4974166;28;20458;-84
2023/01/22 12:32:08;;;;;;;11.07;7.97;;;5.20;99.90;;;;;;4957056;28;20599;-85
2023/01/22 12:34:49;;;;;;;8.25;7.18;;;5.40;99.90;;;;;;4959706;28;20051;-86
2023/01/22 12:37:25;;;;;;;8.82;7.93;;;5.60;99.90;;;;;;4976240;28;20085;-85
2023/01/22 12:40:20;;;;;;;9.00;7.10;;;5.80;99.90;;;;;;4961550;28;20502;-85
2023/01/22 12:43:04;;;;;;;7.43;6.32;;;6.00;99.90;;;;;;4946759;28;20075;-85
2023/01/22 12:45:39;;;;;;;7.18;6.03;;;6.20;99.90;;;;;;4957950;28;20101;-85
2023/01/22 12:48:28;;;;;;;8.35;5.80;;;6.30;99.90;;;;;;4957378;28;20569;-86
2023/01/22 12:50:56;;;;;;;6.47;5.45;;;6.30;99.90;;;;;;4959650;28;20499;-86
2023/01/22 12:53:28;;;;;;;7.35;5.35;;;6.20;99.90;;;;;;4971287;28;20050;-82
2023/01/22 12:56:03;;;;;;;5.30;4.70;;;6.10;99.90;;;;;;4946114;28;20043;-83
2023/01/22 12:58:37;;;;;;;6.30;4.80;;;6.20;99.90;;;;;;4974847;28;20127;-83
2023/01/22 13:01:18;;;;;;;6.70;4.40;;;6.30;99.90;;;;;;4959591;28;20132;-83
2023/01/22 13:03:58;;;;;;;5.88;4.75;;;6.20;99.90;;;;;;4971359;28;20137;-83
2023/01/22 13:06:37;;;;;;;6.10;4.55;;;6.10;99.90;;;;;;4950938;28;20054;-83
2023/01/22 13:09:05;;;;;;;8.15;6.35;;;6.30;99.90;;;;;;4952273;28;20487;-83